AddedLatest Added eBooks:

  1. 2019-08-12Devolutions Remote Desktop Manager Enterprise Edition v2019.1.38.0 AMPED
  2. 2019-08-12Breakthrough 2019 720p BluRay x264-GECKOS
  3. 2019-08-12Captain Marvel 2019 HEVC 1080p BluRay DTS x265-LEGi0N
  4. 2019-08-12Crypto 2019 BluRay 720p DTS x264-HDH
  5. 2019-08-12Dumbo 2019 BluRay 1080p DTS-HD MA 7 1 x264-HDH
  6. 2019-08-12Get Big 2017 720p BluRay x264-SPECTACLE
  7. 2019-08-12Gloria Bell 2018 720p BluRay DD5 1 x264-playHD
  8. 2019-08-12Gods Own Country 2017 BluRay 1080p x264 DTS-HD MA 5 1-HDChina
  9. 2019-08-12Hellboy 2019 720p BluRay x264-DRONES
  10. 2019-08-12Hot Summer Nights 2017 720p BluRay x264-HANDJOB
  11. 2019-08-12MFKZ 2017 720p BluRay x264-USURY
  12. 2019-08-12Outlaws 2017 720p BluRay x264-HANDJOB
  13. 2019-08-12Pokemon Detective Pikachu 2019 720p BluRay x264-AAA
  14. 2019-08-12Shazam 2019 1080p BluRay x264-SPARKS
  15. 2019-08-12Sheep and Wolves 2 Pig Deal 2019 1080p Bluray X264-EVO
  16. 2019-08-12Captain Marvel 2019 BluRay 720p DTS x264-HDH
  17. 2019-08-12Crypto 2019 BluRay 1080p DTS-HD MA 5 1 x264-HDH
  18. 2019-08-12Extremely Wicked Shockingly Evil and Vile 2019 720p BluRay x264-VETO
  19. 2019-08-12Fighting with My Family 2019 Directors Cut 720p BluRay DD5 1 x264-PUTAO
  20. 2019-08-12Five Feet Apart 2019 720p BluRay x264-DRONES
  21. 2019-08-12Gods Own Country 2017 1080p BluRay DTS x264-SpaceHD
  22. 2019-08-12Greta 2018 1080p BluRay DTS x264-GALVANiZE - Removed
  23. 2019-08-12Hotel Mumbai 2018 1080p BluRay DD5 1 x264-DON - Removed
  24. 2019-08-12Never Grow Old 2019 1080p BluRay DD5 1 x264-iFT
  25. 2019-08-12Pokemon Detective Pikachu 2019 1080p BluRay x264-AAA
  26. 2019-08-12Shed of The Dead 2019 Uncut 720p BluRay x264-GETiT
  27. 2019-08-12BeOrgasmic - Be Orgasmic
  28. 2019-08-12Dumbo 2019 1080p BluRay DD5 1 x264-playHD
  29. 2019-08-12Fast Color 2018 LIMITED 720p BluRay x264-GECKOS
  30. 2019-08-12Gladiator 2000 10th Anniversary Ext Edition REMASTERED BluRay 1080p DTS 2Audio x264-CHD
  31. 2019-08-12Hellboy 2019 1080p Bluray X264-EVO
  32. 2019-08-12Hotel Soul Good 2018 1080p BluRay DD5 1 x264-PBK
  33. 2019-08-12Miss March 2009 UNRATED 1080p BluRay DTS x264-HDMaNiAcS
  34. 2019-08-12Patrick 2018 1080p BluRay DD5 1 x264-playHD
  35. 2019-08-12Red Island 2018 720p BluRay x264-HANDJOB
  36. 2019-08-12Shazam! 2019 1080p BluRay x264-WiKi
  37. 2019-08-12Captain Marvel 2019 720p BluRay x264 DTS-HDChina
  38. 2019-08-12Robbie Hemingway - Text God VIP
  39. 2019-08-12Gloria Bell 2018 720p BluRay DD5 1 x264-iFT
  40. 2019-08-12Greta 2018 1080p BluRay DD5 1 x264-playHD - Removed
  41. 2019-08-12The Social Heartistry Academy
  42. 2019-08-12Hot Summer Nights 2017 720p BluRay x264-CADAVER
  43. 2019-08-12MFKZ 2017 1080p BluRay x264-USURY
  44. 2019-08-12Missing Link 2019 720p BluRay x264-AAA
  45. 2019-08-12Outlaws 2017 1080p BluRay x264-JustWatch
  46. 2019-08-12Boy Erased 2018 720p BluRay DD5 1 x264-playHD
  47. 2019-08-12Prometheus 2012 720p BluRay x264-OMEGA
  48. 2019-08-12Shazam 2019 MULTi 1080p BluRay x264-LOST
  49. 2019-08-12Get Big 2017 1080p BluRay x264-SPECTACLE
  50. 2019-08-12Here Comes The Grump 2019 1080p BluRay x264-EVO - Removed
  51. 2019-08-12Outlaws 2017 720p BluRay x264-JustWatch
  52. 2019-08-12Captain Marvel 2019 720p BluRay DD5 1 x264-PUTAO
  53. 2019-08-12Captive State 2019 720p BluRay DD5 1 x264-SbR - Removed
  54. 2019-08-12Crypto 2019 1080p BluRay DTS x264-MiBR
  55. 2019-08-12Udemy - SPSS Masterclass: Learn SPSS From Scratch to Advanced
  56. 2019-08-12Microsoft Visual Studio 2019 version 16.2.1 - Removed
  57. 2019-08-12How To Memorize & Remember The Reactivity Series in Order
  58. 2019-08-12MedCalc 19.0.7 Multilingual
  59. 2019-08-12Remote Desktop Manager Enterprise 2019.1.41.0 Multilingual
  60. 2019-08-12Udemy - C# Programming for BeginnersPractical Applications Approach (2019)
  61. 2019-08-12Adobe Indesign CC 2019 v14.0.3.422 Multilanguage
  62. 2019-08-12CAMWorks ShopFloor 2019 SP3.0
  63. 2019-08-12ManageEngine Mobile Device Manager Plus 9.2.0 Build 92661 Professional
  64. 2019-08-12NCH WavePad 9.31 Beta
  65. 2019-08-12R-Wipe & Clean 20.0 Build 2246
  66. 2019-08-12Greta 2018 BluRay 720p x264 DD5 1-PTER - Removed
  67. 2019-08-12Hotel Soul Good 2018 720p BluRay DD5 1 x264-PBK
  68. 2019-08-12Monster Island 2019 720p BluRay x264-GUACAMOLE
  69. 2019-08-12Breakthrough 2019 MULTi 1080p BluRay x264-VENUE
  70. 2019-08-12Shutter Island 2010 1080p BluRay x264-METiS
  71. 2019-08-12Captain Marvel 2019 BluRay 1080p DTS-HD MA 7 1 x264-HDH
  72. 2019-08-12Monster Island 2019 BluRay 1080p x264-GUACAMOLE
  73. 2019-08-12Adobe Photoshop Lightroom Classic CC 2019 v8.4.0.10 (x64) Multilingual ISO
  74. 2019-08-123D-Coat 4.9.05 (x64) Multilingual
  75. 2019-08-123DF Zephyr Aerial 4.505
  76. 2019-08-124K Stogram 2.7.3.1805 Multilingual
  77. 2019-08-12Adobe Audition CC 2019 v12.1.3.10 (x64) Multilingual ISO
  78. 2019-08-12AirLiveDrive Pro 1.3.2 Multilingual
  79. 2019-08-12Aiseesoft Total Media Converter 9.2.20 Multilingual
  80. 2019-08-12Amyuni PDF Converter PDF Suite Desktop 6.0.2.1
  81. 2019-08-12AnyMP4 Screen Recorder 1.2.26 Multilingual
  82. 2019-08-12AOMEI Backupper 5.1.0 Multilingual
  83. 2019-08-12AOMEI Backupper All Editions WinPE Boot Legacy & UEFI 5.1.0
  84. 2019-08-12Apeaksoft Screen Recorder 1.2.32 Multilingual
  85. 2019-08-12Athentech Perfectly Clear Essentials 3.7.0.1634 (x64)
  86. 2019-08-12Athentech Perfectly Clear WorkBench 3.7.0.1634 (x64)
  87. 2019-08-12Autodesk CFD 2019.2
  88. 2019-08-12Blackmagic Design DaVinci Resolve Studio 16.0.0.60 (x64) Multilingual
  89. 2019-08-12Blackmagic Design Fusion Studio 16.0 Build 49 (x64) Multilingual
  90. 2019-08-12Corel AfterShot Standard 3.5.0.365 (x64) Multilingual
  91. 2019-08-12DMS-Shuttle 1.4.0.100
  92. 2019-08-12EarthTime 6.0.1
  93. 2019-08-12FreeGrabApp Free Vimeo Download 5.0.1.807 Premium
  94. 2019-08-12iFind Data Recovery Enterprise 5.9.5
  95. 2019-08-12ImageRanger Pro Edition 1.6.3.1381 (x64)
  96. 2019-08-12Kinetics 2.1 R10129
  97. 2019-08-12LC Technology VIDEORECOVERY 2019 v5.1.9.7 Multilingual

More eBooks ...

42778 pages, 4277781 eBooks in total, list all pages->

Search free ebooks in ebookee.com!
Back to Top